Time;durP1;ratioP1;P1;durP2;ratioP2;P2;SDS_P1;SDS_P2;PMS_P1;PMS_P2;Temp;Humidity;BMP_temperature;BMP_pressure;BME280_temperature;BME280_humidity;BME280_pressure;Samples;Min_cycle;Max_cycle;Signal;HPM_P1;HPM_P2
2023/05/02 00:01:14;;;;;;;35.47;16.48;;;;;;;11.82;87.25;101933.34;5212785;22;20053;-66
2023/05/02 00:03:40;;;;;;;35.95;16.13;;;;;;;11.86;87.30;101931.69;5165012;22;20455;-66
2023/05/02 00:06:06;;;;;;;37.35;16.55;;;;;;;11.87;87.32;101939.59;5235245;22;20618;-65
2023/05/02 00:08:31;;;;;;;34.92;16.23;;;;;;;11.84;87.33;101935.13;5365048;22;20024;-66
2023/05/02 00:10:56;;;;;;;35.58;15.98;;;;;;;11.84;87.58;101945.59;4998036;28;20041;-65
2023/05/02 00:13:22;;;;;;;37.88;16.77;;;;;;;11.81;87.81;101945.47;5211337;22;20060;-69
2023/05/02 00:15:47;;;;;;;37.08;16.25;;;;;;;11.78;88.12;101950.59;5039313;28;20476;-70
2023/05/02 00:18:13;;;;;;;35.85;17.08;;;;;;;11.78;88.30;101954.94;5179813;22;20049;-65
2023/05/02 00:20:41;;;;;;;36.05;16.83;;;;;;;11.78;88.39;101963.66;5163820;22;20052;-66
2023/05/02 00:23:06;;;;;;;36.83;17.47;;;;;;;11.79;88.42;101957.59;5169551;22;20053;-66
2023/05/02 00:25:32;;;;;;;36.75;17.67;;;;;;;11.78;88.53;101957.56;5143256;22;20469;-66
2023/05/02 00:27:57;;;;;;;34.28;16.35;;;;;;;11.76;88.59;101959.19;5264014;22;20120;-69
2023/05/02 00:32:53;;;;;;;35.45;16.73;;;;;;;11.71;88.67;101964.25;5159382;22;20085;-66
2023/05/02 00:35:18;;;;;;;33.70;16.15;;;;;;;11.71;88.69;101963.38;5113707;22;20441;-66
2023/05/02 00:40:19;;;;;;;36.17;16.42;;;;;;;11.61;89.30;101968.25;5043106;22;20559;-66
2023/05/02 00:42:44;;;;;;;35.75;15.98;;;;;;;11.56;89.09;101964.59;5195743;22;20528;-66
2023/05/02 00:45:11;;;;;;;37.05;16.42;;;;;;;11.53;89.26;101969.69;5223749;22;20076;-65
2023/05/02 00:47:36;;;;;;;31.40;13.63;;;;;;;11.47;88.38;101961.59;5014274;28;20044;-66
2023/05/02 00:50:04;;;;;;;29.10;14.05;;;;;;;11.45;88.56;101973.72;5035971;28;20036;-65
2023/05/02 00:52:30;;;;;;;29.27;13.45;;;;;;;11.43;88.04;101967.56;5135279;22;20058;-69
2023/05/02 01:05:16;;;;;;;27.98;12.07;;;;;;;11.25;88.05;101976.47;5017464;23;20510;-69
2023/05/02 01:07:53;;;;;;;27.10;13.20;;;;;;;11.20;88.05;101975.38;5182421;23;20059;-66
2023/05/02 01:10:29;;;;;;;29.15;13.30;;;;;;;11.20;88.22;101970.16;5275315;22;20156;-66
2023/05/02 01:15:22;;;;;;;27.27;11.73;;;;;;;11.12;87.80;101982.91;5399624;22;20047;-66
2023/05/02 01:17:49;;;;;;;23.88;11.65;;;;;;;11.10;87.78;101984.56;5016424;28;20523;-66
2023/05/02 01:20:19;;;;;;;25.25;12.70;;;;;;;11.04;88.22;101981.72;5301868;22;20032;-65
2023/05/02 01:22:46;;;;;;;23.33;11.20;;;;;;;10.98;88.49;101984.09;5035533;28;20045;-66
2023/05/02 01:25:35;;;;;;;21.25;9.77;;;;;;;10.92;87.82;101981.22;5188920;22;20053;-66
2023/05/02 01:28:46;;;;;;;20.23;9.38;;;;;;;10.85;87.76;101976.56;5169699;22;21542;-66
2023/05/02 01:31:14;;;;;;;18.42;8.80;;;;;;;10.77;87.98;101973.66;5345507;22;20037;-69
2023/05/02 01:33:40;;;;;;;20.48;8.82;;;;;;;10.70;88.59;101976.84;5379924;22;20053;-69
2023/05/02 01:38:38;;;;;;;18.80;8.77;;;;;;;10.70;88.84;101971.63;5039808;23;20057;-65
2023/05/02 01:41:06;;;;;;;19.67;8.85;;;;;;;10.72;88.88;101981.28;5227607;22;20053;-65
2023/05/02 01:43:34;;;;;;;20.98;9.30;;;;;;;10.75;88.89;101990.97;5282548;22;20197;-66
2023/05/02 01:48:30;;;;;;;20.35;9.25;;;;;;;10.78;89.08;101991.09;5303058;22;20047;-69
2023/05/02 01:53:34;;;;;;;20.13;9.20;;;;;;;10.84;89.27;101990.47;5121829;23;20060;-69
2023/05/02 01:56:00;;;;;;;17.17;9.07;;;;;;;10.85;89.51;101987.00;5037134;28;20499;-69
2023/05/02 01:58:29;;;;;;;20.02;9.80;;;;;;;10.83;89.56;101993.88;5144004;22;20058;-65
2023/05/02 02:00:57;;;;;;;21.70;9.70;;;;;;;10.83;89.74;101999.09;5193793;23;20033;-65
2023/05/02 02:03:23;;;;;;;20.13;9.82;;;;;;;10.83;90.04;102010.41;5002752;28;20060;-65
2023/05/02 02:05:50;;;;;;;18.95;9.13;;;;;;;10.86;90.09;101997.53;5003546;28;20037;-65
2023/05/02 02:08:15;;;;;;;24.77;10.63;;;;;;;10.93;89.92;102011.69;5003028;28;20052;-65
2023/05/02 02:10:44;;;;;;;24.75;10.30;;;;;;;10.95;90.24;102021.34;5179398;22;20057;-69
2023/05/02 02:15:46;;;;;;;22.20;10.07;;;;;;;10.95;90.11;102015.25;5143567;22;20069;-65
2023/05/02 02:18:17;;;;;;;19.00;9.65;;;;;;;10.95;90.27;102023.09;5298934;22;20129;-69
2023/05/02 02:20:44;;;;;;;21.90;10.43;;;;;;;10.93;90.16;102016.91;5092291;22;20032;-65
2023/05/02 02:23:12;;;;;;;20.98;10.25;;;;;;;10.93;90.67;102022.13;5293855;23;20045;-69
2023/05/02 02:25:39;;;;;;;21.60;10.43;;;;;;;10.89;91.28;102023.72;5211189;22;20075;-69
2023/05/02 02:30:36;;;;;;;22.85;10.20;;;;;;;10.91;91.52;102029.00;5175953;22;20055;-65
2023/05/02 02:35:43;;;;;;;22.50;11.02;;;;;;;10.93;91.09;102032.53;5126857;22;20064;-65
2023/05/02 02:38:14;;;;;;;22.95;10.85;;;;;;;10.97;91.19;102029.25;5184900;22;20135;-69
2023/05/02 02:43:27;;;;;;;23.23;11.10;;;;;;;10.92;91.54;102030.75;5234269;22;20064;-65
2023/05/02 02:46:10;;;;;;;26.98;11.85;;;;;;;10.89;91.53;102028.94;5036853;28;20033;-65
2023/05/02 02:51:08;;;;;;;22.70;11.45;;;;;;;10.87;91.83;102041.00;5264786;22;20061;-65
2023/05/02 02:56:39;;;;;;;25.45;12.00;;;;;;;10.85;92.32;102040.06;5328240;22;20125;-65
2023/05/02 03:04:12;;;;;;;26.77;14.10;;;;;;;10.70;93.25;102052.44;5087397;23;20075;-69
2023/05/02 03:06:38;;;;;;;28.40;14.57;;;;;;;10.69;93.24;102054.16;5144756;22;20065;-65
2023/05/02 03:09:03;;;;;;;28.67;15.48;;;;;;;10.68;93.28;102054.97;5302443;22;20024;-65
2023/05/02 03:11:28;;;;;;;30.95;15.45;;;;;;;10.71;93.26;102062.06;5132765;22;20028;-65
2023/05/02 03:13:54;;;;;;;31.88;15.65;;;;;;;10.74;93.47;102068.25;5182567;22;20027;-65
2023/05/02 03:16:26;;;;;;;30.70;15.18;;;;;;;10.75;93.38;102069.19;5039375;28;20650;-65
2023/05/02 03:18:51;;;;;;;33.22;16.15;;;;;;;10.77;93.23;102075.34;5038818;28;20727;-65
2023/05/02 03:21:16;;;;;;;29.00;15.45;;;;;;;10.75;93.61;102077.88;5038712;28;20055;-65
2023/05/02 03:23:42;;;;;;;29.63;15.45;;;;;;;10.77;93.50;102070.13;5037822;28;20526;-65
2023/05/02 03:26:07;;;;;;;26.65;14.55;;;;;;;10.77;93.67;102076.22;5036292;28;20028;-65
2023/05/02 03:28:32;;;;;;;26.98;15.13;;;;;;;10.78;93.32;102077.13;5038099;28;20435;-65
2023/05/02 03:30:57;;;;;;;31.48;14.63;;;;;;;10.79;93.44;102078.91;5036926;28;20029;-65
2023/05/02 03:33:23;;;;;;;27.20;14.52;;;;;;;10.77;93.74;102081.44;5033883;28;20017;-65
2023/05/02 03:35:48;;;;;;;26.75;14.32;;;;;;;10.77;93.78;102081.44;5032322;28;20055;-65
2023/05/02 03:38:13;;;;;;;27.95;14.20;;;;;;;10.78;94.20;102077.13;5036214;28;20029;-65
2023/05/02 03:40:39;;;;;;;24.77;13.20;;;;;;;10.78;94.34;102075.41;5035456;28;20021;-65
2023/05/02 03:43:04;;;;;;;27.38;13.20;;;;;;;10.78;94.06;102077.13;5038642;28;20025;-65
2023/05/02 03:45:29;;;;;;;24.58;13.02;;;;;;;10.78;94.09;102084.94;5037790;28;20492;-65
2023/05/02 03:47:55;;;;;;;20.45;11.63;;;;;;;10.78;94.64;102080.63;5037769;28;20180;-65
2023/05/02 03:50:20;;;;;;;22.85;11.55;;;;;;;10.76;94.77;102084.88;5036843;28;20392;-65
2023/05/02 03:52:45;;;;;;;22.38;12.45;;;;;;;10.76;94.85;102090.09;5037950;28;20029;-65
2023/05/02 03:55:11;;;;;;;23.17;12.20;;;;;;;10.77;95.27;102090.97;5037361;28;20017;-65
2023/05/02 03:57:36;;;;;;;22.48;12.90;;;;;;;10.77;94.87;102099.69;5038744;28;20388;-65
2023/05/02 04:00:01;;;;;;;24.77;11.43;;;;;;;10.77;94.86;102098.81;5037600;28;20511;-65
2023/05/02 04:02:28;;;;;;;41.67;24.10;;;;;;;10.76;95.53;102105.75;5038755;28;20035;-65
2023/05/02 04:04:53;;;;;;;23.73;10.40;;;;;;;10.73;94.67;102112.53;5037991;28;20159;-65
2023/05/02 04:07:19;;;;;;;21.73;9.90;;;;;;;10.70;94.66;102118.53;5021263;28;20083;-65
2023/05/02 04:09:44;;;;;;;19.60;9.27;;;;;;;10.69;94.85;102121.03;5038223;28;20033;-65
2023/05/02 04:12:10;;;;;;;20.10;8.65;;;;;;;10.67;94.40;102122.69;5038487;28;20036;-65
2023/05/02 04:14:35;;;;;;;18.52;7.75;;;;;;;10.60;93.30;102121.53;5020532;28;20566;-65
2023/05/02 04:17:00;;;;;;;15.98;7.15;;;;;;;10.52;92.63;102128.13;5037631;28;20444;-65
2023/05/02 04:19:26;;;;;;;14.95;6.28;;;;;;;10.46;92.34;102135.66;5038422;28;20037;-65
2023/05/02 04:21:51;;;;;;;13.43;5.32;;;;;;;10.37;91.04;102128.31;5038027;28;20036;-65
2023/05/02 04:24:17;;;;;;;11.43;4.60;;;;;;;10.29;89.88;102132.28;5037017;28;20037;-65
2023/05/02 04:26:43;;;;;;;10.60;4.15;;;;;;;10.22;89.86;102142.38;5036957;28;21183;-65
2023/05/02 04:29:08;;;;;;;11.63;4.38;;;;;;;10.18;89.33;102152.59;5036353;28;20032;-65
2023/05/02 04:31:33;;;;;;;18.27;6.57;;;;;;;10.17;89.23;102167.34;5018568;28;20382;-65
2023/05/02 04:33:59;;;;;;;12.32;3.97;;;;;;;10.17;88.81;102164.75;5035840;28;20063;-65
2023/05/02 04:36:27;;;;;;;12.43;4.10;;;;;;;10.19;88.82;102165.69;5035789;28;20463;-65
2023/05/02 04:38:52;;;;;;;7.80;3.30;;;;;;;10.16;87.34;102168.16;5034038;28;20032;-65
2023/05/02 04:41:17;;;;;;;8.55;3.25;;;;;;;10.12;85.95;102174.03;5037337;28;20026;-65
2023/05/02 04:43:43;;;;;;;5.70;2.75;;;;;;;10.05;85.35;102172.88;5036946;28;20025;-65
2023/05/02 04:46:08;;;;;;;5.40;2.58;;;;;;;10.04;84.22;102180.63;5147481;22;20071;-68
2023/05/02 04:48:33;;;;;;;8.45;2.67;;;;;;;10.00;83.38;102181.28;5189798;22;20127;-65
2023/05/02 04:50:59;;;;;;;7.28;2.63;;;;;;;9.97;82.89;102188.97;5035608;28;20025;-65
2023/05/02 04:53:24;;;;;;;7.20;2.45;;;;;;;9.95;83.03;102201.91;5036418;28;20039;-65
2023/05/02 04:55:49;;;;;;;6.18;2.70;;;;;;;9.93;82.94;102200.91;5017022;28;20032;-65
2023/05/02 04:58:15;;;;;;;8.35;2.70;;;;;;;9.95;83.10;102208.81;5035215;28;20060;-65
2023/05/02 05:00:40;;;;;;;8.70;2.70;;;;;;;9.95;82.98;102214.00;5037619;28;20036;-65
2023/05/02 05:03:06;;;;;;;5.93;2.47;;;;;;;9.96;82.81;102213.19;5034981;28;20436;-65
2023/05/02 05:05:32;;;;;;;7.63;2.50;;;;;;;9.93;82.85;102213.94;5033620;28;20071;-65
2023/05/02 05:07:57;;;;;;;8.98;3.08;;;;;;;9.89;82.92;102215.53;5032372;28;20029;-65
2023/05/02 05:10:22;;;;;;;8.00;2.85;;;;;;;9.89;81.91;102217.22;5034002;28;20074;-65
2023/05/02 05:12:48;;;;;;;6.72;2.55;;;;;;;9.87;83.05;102222.34;5035211;28;20021;-65
2023/05/02 05:15:14;;;;;;;7.55;2.88;;;;;;;9.87;82.91;102219.75;5032370;28;20571;-65
2023/05/02 05:17:39;;;;;;;7.60;2.63;;;;;;;9.90;83.22;102229.41;5032529;28;20034;-65
2023/05/02 05:20:05;;;;;;;7.00;3.20;;;;;;;9.91;83.43;102231.22;5034978;28;20653;-65
2023/05/02 05:22:31;;;;;;;9.38;2.83;;;;;;;9.90;83.04;102238.09;5033575;28;20041;-65
2023/05/02 05:24:56;;;;;;;8.80;2.72;;;;;;;9.91;82.98;102242.50;5016779;28;20385;-65
2023/05/02 05:27:21;;;;;;;8.10;3.08;;;;;;;9.93;83.11;102242.56;5035039;28;20034;-65
2023/05/02 05:29:47;;;;;;;7.95;3.33;;;;;;;9.95;83.19;102250.47;5034535;28;20058;-65
2023/05/02 05:32:12;;;;;;;7.88;2.88;;;;;;;9.97;83.17;102248.84;5034282;28;20087;-65
2023/05/02 05:34:37;;;;;;;8.88;2.80;;;;;;;9.99;82.03;102249.81;5011793;28;20164;-65
2023/05/02 05:37:03;;;;;;;7.80;2.22;;;;;;;9.98;81.21;102253.22;5031499;28;20021;-65
2023/05/02 05:39:28;;;;;;;9.40;2.60;;;;;;;9.95;80.82;102251.38;5030399;28;20017;-65
2023/05/02 05:41:54;;;;;;;16.67;3.45;;;;;;;9.98;80.08;102261.94;5034800;28;20021;-65
2023/05/02 05:44:21;;;;;;;7.95;3.00;;;;;;;9.97;79.75;102267.97;5036564;28;20075;-65
2023/05/02 05:46:46;;;;;;;7.93;2.30;;;;;;;9.94;80.45;102262.59;5035833;28;20109;-65
2023/05/02 05:49:14;;;;;;;8.77;2.47;;;;;;;9.97;80.14;102260.16;5027534;28;20124;-65
2023/05/02 05:51:39;;;;;;;7.60;2.33;;;;;;;9.99;79.04;102262.81;5020809;28;20209;-65
2023/05/02 05:54:04;;;;;;;13.20;3.65;;;;;;;9.96;79.73;102267.88;5025256;28;20209;-65
2023/05/02 05:56:29;;;;;;;7.85;2.35;;;;;;;9.94;79.41;102272.13;5024718;28;20041;-65
2023/05/02 05:58:55;;;;;;;11.38;2.78;;;;;;;9.90;78.79;102269.34;5023809;28;20021;-65
2023/05/02 06:01:20;;;;;;;7.68;2.47;;;;;;;9.94;80.01;102272.13;5025116;28;20013;-65
2023/05/02 06:03:45;;;;;;;6.53;2.17;;;;;;;10.00;79.20;102278.50;5024865;28;20523;-65
2023/05/02 06:06:11;;;;;;;11.02;3.13;;;;;;;10.09;79.43;102280.69;5024456;28;20119;-65
2023/05/02 06:08:36;;;;;;;8.75;2.67;;;;;;;10.14;79.36;102292.22;5025143;28;20025;-65
2023/05/02 06:11:01;;;;;;;8.02;2.72;;;;;;;10.15;78.63;102294.00;5024191;28;20033;-65
2023/05/02 06:13:27;;;;;;;7.95;2.50;;;;;;;10.16;77.70;102289.69;5023984;28;20021;-65
2023/05/02 06:15:52;;;;;;;8.00;2.65;;;;;;;10.18;78.20;102298.47;5023488;28;20103;-65
2023/05/02 06:18:17;;;;;;;9.15;2.50;;;;;;;10.27;78.32;102299.81;5024042;28;20108;-65
2023/05/02 06:20:42;;;;;;;8.73;2.90;;;;;;;10.34;77.95;102302.72;5024205;28;20029;-65
2023/05/02 06:23:08;;;;;;;9.05;2.47;;;;;;;10.40;77.80;102309.16;5028190;28;20029;-65
2023/05/02 06:25:36;;;;;;;8.40;2.35;;;;;;;10.51;77.43;102308.75;5026098;28;22103;-65
2023/05/02 06:28:01;;;;;;;7.35;2.35;;;;;;;10.60;77.60;102319.59;5023477;28;20389;-65
2023/05/02 06:30:27;;;;;;;9.10;2.83;;;;;;;10.63;77.96;102318.88;5028438;28;20028;-65
2023/05/02 06:32:52;;;;;;;11.43;2.95;;;;;;;10.72;78.12;102319.31;5027625;28;20416;-65
2023/05/02 06:35:17;;;;;;;9.38;2.90;;;;;;;10.76;77.44;102327.34;5024690;28;20037;-65
2023/05/02 06:37:42;;;;;;;8.50;2.42;;;;;;;10.84;78.15;102343.34;5027763;28;20083;-65
2023/05/02 06:40:09;;;;;;;26.02;3.75;;;;;;;10.94;77.65;102335.13;5009994;28;20489;-65
2023/05/02 06:42:34;;;;;;;14.15;2.92;;;;;;;10.95;76.02;102344.75;5027794;28;20029;-65
2023/05/02 06:44:59;;;;;;;11.65;3.17;;;;;;;10.93;76.13;102345.47;5025982;28;20032;-65
2023/05/02 06:47:25;;;;;;;11.90;3.10;;;;;;;10.94;77.39;102348.16;5027537;28;20116;-65
2023/05/02 06:52:20;;;;;;;14.68;3.40;;;;;;;10.91;77.27;102355.84;5000677;28;20128;-65
2023/05/02 06:54:45;;;;;;;18.35;3.92;;;;;;;11.00;79.13;102362.31;5101706;22;20470;-65
2023/05/02 06:57:10;;;;;;;20.20;3.75;;;;;;;11.05;77.66;102358.19;5150682;22;20080;-65
2023/05/02 06:59:36;;;;;;;9.82;3.08;;;;;;;11.10;76.57;102372.34;5017567;28;20032;-65
2023/05/02 07:02:01;;;;;;;10.93;3.58;;;;;;;11.13;77.85;102362.06;5019287;28;20493;-65
2023/05/02 07:04:27;;;;;;;9.00;3.13;;;;;;;11.25;77.14;102365.25;5017608;28;20021;-65
2023/05/02 07:06:52;;;;;;;9.40;3.38;;;;;;;11.33;76.19;102369.91;5019075;28;20172;-65
2023/05/02 07:09:18;;;;;;;15.40;3.35;;;;;;;11.39;77.36;102372.78;5018232;28;20120;-65
2023/05/02 07:11:43;;;;;;;13.82;3.60;;;;;;;11.47;77.03;102371.38;5019385;28;20036;-65
2023/05/02 07:14:08;;;;;;;11.90;3.17;;;;;;;11.57;77.16;102377.91;5017369;28;20034;-65
2023/05/02 07:16:34;;;;;;;12.00;3.25;;;;;;;11.67;77.33;102374.88;5020303;28;20022;-65
2023/05/02 07:19:00;;;;;;;9.55;3.38;;;;;;;11.66;75.46;102378.34;5018026;28;20112;-65
2023/05/02 07:21:26;;;;;;;9.40;3.20;;;;;;;11.59;74.48;102387.63;5014579;28;20068;-65
2023/05/02 07:23:51;;;;;;;12.45;3.70;;;;;;;11.60;74.96;102394.63;5017310;28;20025;-65
2023/05/02 07:26:17;;;;;;;11.55;3.67;;;;;;;11.62;75.12;102403.41;5014891;28;20026;-65
2023/05/02 07:28:43;;;;;;;9.77;3.38;;;;;;;11.63;74.39;102399.09;5017407;28;20037;-65
2023/05/02 07:31:08;;;;;;;10.13;3.78;;;;;;;11.54;74.68;102396.94;5018727;28;20036;-65
2023/05/02 07:33:33;;;;;;;11.15;3.72;;;;;;;11.47;74.42;102402.72;5014508;28;20049;-65
2023/05/02 07:36:00;;;;;;;11.75;3.83;;;;;;;11.46;75.15;102408.78;5018217;28;20033;-65
2023/05/02 07:38:26;;;;;;;11.40;3.70;;;;;;;11.48;75.36;102407.13;5017400;28;20033;-65
2023/05/02 07:40:52;;;;;;;11.32;3.85;;;;;;;11.55;74.94;102410.91;5021594;28;20108;-65
2023/05/02 07:43:17;;;;;;;10.60;4.03;;;;;;;11.55;74.07;102406.56;5017789;28;21111;-65
2023/05/02 07:45:42;;;;;;;10.95;3.90;;;;;;;11.49;72.96;102417.63;5019807;28;20064;-65
2023/05/02 07:48:08;;;;;;;11.98;4.40;;;;;;;11.42;73.12;102423.38;5017356;28;20061;-65
2023/05/02 07:50:33;;;;;;;14.02;4.40;;;;;;;11.38;73.66;102417.97;5016309;28;20029;-65
2023/05/02 07:52:59;;;;;;;16.95;4.10;;;;;;;11.36;73.25;102425.72;5017675;28;20030;-65
2023/05/02 07:55:25;;;;;;;13.52;4.30;;;;;;;11.28;73.53;102430.59;5019485;28;20485;-65
2023/05/02 07:57:51;;;;;;;13.50;4.72;;;;;;;11.11;73.22;102429.81;5020212;28;20049;-65
2023/05/02 08:00:16;;;;;;;12.55;3.92;;;;;;;11.00;73.68;102436.22;5019267;28;20025;-65
2023/05/02 08:02:42;;;;;;;10.60;3.50;;;;;;;10.85;71.59;102435.47;5019609;28;20497;-65
2023/05/02 08:05:07;;;;;;;11.98;3.50;;;;;;;10.77;73.02;102442.94;5018623;28;20060;-65
2023/05/02 08:07:34;;;;;;;10.13;3.38;;;;;;;10.67;71.52;102448.53;5019069;28;20113;-65
2023/05/02 08:10:00;;;;;;;12.50;3.70;;;;;;;10.55;71.07;102444.50;5019051;28;20033;-65
2023/05/02 08:12:25;;;;;;;11.02;3.13;;;;;;;10.48;71.38;102451.94;5016572;28;20151;-65
2023/05/02 08:14:50;;;;;;;10.40;3.10;;;;;;;10.44;72.76;102445.69;5017658;28;20030;-65
2023/05/02 08:17:15;;;;;;;11.23;3.47;;;;;;;10.47;72.24;102453.69;5018611;28;20026;-65
2023/05/02 08:19:41;;;;;;;12.02;3.63;;;;;;;10.52;72.20;102448.69;5017932;28;20508;-65
2023/05/02 08:22:06;;;;;;;8.63;3.20;;;;;;;10.56;72.64;102454.13;5017912;28;20017;-65
2023/05/02 08:24:31;;;;;;;10.10;3.03;;;;;;;10.59;70.58;102461.22;5019195;28;20397;-65
2023/05/02 08:32:02;;;;;;;11.90;3.78;;;;;;;10.78;71.69;102471.69;5047618;28;20102;-64
2023/05/02 08:34:28;;;;;;;12.45;3.45;;;;;;;10.89;71.86;102474.84;5047318;28;20082;-65
2023/05/02 08:36:53;;;;;;;9.02;3.03;;;;;;;10.99;68.83;102477.91;5051536;28;20106;-64
2023/05/02 08:39:18;;;;;;;9.65;2.90;;;;;;;11.10;69.43;102481.91;5051776;28;20025;-65
2023/05/02 08:41:44;;;;;;;9.13;3.00;;;;;;;11.24;70.29;102479.94;5050400;28;20081;-65
2023/05/02 08:46:40;;;;;;;9.40;3.10;;;;;;;11.50;66.03;102486.41;5061013;22;20050;-68
2023/05/02 08:49:07;;;;;;;7.57;3.28;;;;;;;11.56;67.03;102484.06;5004614;28;20150;-68
2023/05/02 08:51:34;;;;;;;9.85;3.03;;;;;;;11.62;67.67;102486.97;5004730;28;20029;-68
2023/05/02 08:54:02;;;;;;;9.10;3.03;;;;;;;11.68;66.36;102488.06;5006187;28;20045;-68
2023/05/02 08:56:27;;;;;;;9.57;3.30;;;;;;;11.76;66.48;102487.59;5006189;28;20052;-68
2023/05/02 08:58:53;;;;;;;7.72;3.25;;;;;;;11.94;66.80;102494.50;5005017;28;20482;-68
2023/05/02 09:01:22;;;;;;;13.93;3.58;;;;;;;12.09;66.34;102487.31;5005889;28;20396;-68
2023/05/02 09:03:47;;;;;;;9.05;3.33;;;;;;;12.26;67.21;102493.28;5004005;28;20030;-68
2023/05/02 09:06:19;;;;;;;8.65;3.50;;;;;;;12.39;65.07;102496.44;5005465;28;20037;-68
2023/05/02 09:08:49;;;;;;;8.05;3.05;;;;;;;12.40;64.60;102493.91;5005550;28;21011;-68
2023/05/02 09:11:16;;;;;;;11.32;4.07;;;;;;;12.50;66.38;102500.41;5004212;28;20030;-68
2023/05/02 09:13:49;;;;;;;9.45;3.40;;;;;;;12.59;64.70;102502.53;5004950;28;20253;-68
2023/05/02 09:16:18;;;;;;;15.02;3.63;;;;;;;12.68;64.12;102509.00;5005878;28;20072;-68
2023/05/02 09:18:46;;;;;;;9.13;3.43;;;;;;;12.86;65.16;102513.22;5005198;28;20550;-68
2023/05/02 09:21:16;;;;;;;12.25;3.53;;;;;;;12.93;60.46;102510.00;5005283;28;20281;-68
2023/05/02 09:23:44;;;;;;;8.88;3.60;;;;;;;12.88;59.81;102512.44;4987291;28;20359;-68
2023/05/02 09:26:11;;;;;;;9.52;3.42;;;;;;;12.86;61.26;102518.44;5006511;28;20026;-68
2023/05/02 09:28:39;;;;;;;9.75;3.80;;;;;;;12.79;60.46;102529.47;5005455;28;20053;-68
2023/05/02 09:31:09;;;;;;;9.57;3.65;;;;;;;12.67;61.28;102522.94;5005006;28;20033;-68
2023/05/02 09:33:36;;;;;;;13.05;3.60;;;;;;;12.58;63.12;102530.38;5004066;28;20429;-68
2023/05/02 09:36:01;;;;;;;10.00;3.45;;;;;;;12.55;62.20;102518.91;5005045;28;20102;-68
2023/05/02 09:38:27;;;;;;;7.30;3.30;;;;;;;12.58;63.06;102521.66;5005979;28;20568;-68
2023/05/02 09:40:56;;;;;;;11.27;3.30;;;;;;;12.60;62.49;102527.81;5004713;28;20456;-68
2023/05/02 09:43:21;;;;;;;9.80;3.47;;;;;;;12.60;61.98;102531.34;5003046;28;20036;-68
2023/05/02 09:46:01;;;;;;;10.32;3.55;;;;;;;12.65;63.75;102529.81;5000082;28;20489;-68
2023/05/02 09:48:28;;;;;;;9.77;3.10;;;;;;;12.72;60.73;102540.56;4992948;28;20087;-68
2023/05/02 09:50:53;;;;;;;11.23;3.42;;;;;;;12.80;61.26;102544.34;4993700;28;20157;-68
2023/05/02 09:53:19;;;;;;;9.23;3.28;;;;;;;12.92;62.29;102539.66;4993798;28;20109;-68
2023/05/02 09:55:44;;;;;;;15.65;3.45;;;;;;;13.03;61.78;102541.00;4995035;28;20030;-68
2023/05/02 09:58:21;;;;;;;11.73;4.32;;;;;;;13.33;61.06;102543.03;4993548;28;20116;-68
2023/05/02 10:00:46;;;;;;;9.27;3.63;;;;;;;13.34;59.47;102544.84;4994923;28;20026;-68
2023/05/02 10:03:15;;;;;;;9.52;3.42;;;;;;;13.25;60.05;102544.44;4995065;28;20041;-68
2023/05/02 10:05:42;;;;;;;9.60;3.80;;;;;;;13.30;60.60;102552.50;4993638;28;20029;-68
2023/05/02 10:08:09;;;;;;;10.93;4.57;;;;;;;13.59;61.29;102556.28;4993517;28;20030;-68
2023/05/02 10:10:44;;;;;;;7.55;3.53;;;;;;;13.89;60.58;102546.09;5010229;28;20029;-68
2023/05/02 10:13:12;;;;;;;12.52;4.40;;;;;;;14.31;63.05;102541.44;4994712;28;20113;-68
2023/05/02 10:15:43;;;;;;;10.80;4.43;;;;;;;14.62;59.97;102540.81;4994110;28;20030;-68
2023/05/02 10:18:14;;;;;;;8.23;4.25;;;;;;;14.51;58.02;102547.41;4994189;28;20038;-68
2023/05/02 10:20:51;;;;;;;11.43;4.40;;;;;;;14.40;58.80;102550.53;4994636;28;20088;-68
2023/05/02 10:23:18;;;;;;;12.10;4.38;;;;;;;14.37;57.60;102549.56;4993697;28;20038;-68
2023/05/02 10:25:44;;;;;;;8.55;4.03;;;;;;;14.29;56.52;102554.50;4988303;28;20040;-68
2023/05/02 10:28:10;;;;;;;10.35;3.67;;;;;;;14.04;56.53;102560.59;4986988;28;20034;-68
2023/05/02 10:30:37;;;;;;;12.75;3.88;;;;;;;13.90;59.00;102563.59;5043301;22;20057;-67
2023/05/02 10:33:03;;;;;;;9.40;3.80;;;;;;;13.78;57.82;102567.47;4979387;28;20121;-68
2023/05/02 10:40:31;;;;;;;8.07;3.78;;;;;;;13.63;59.54;102568.69;4953790;28;20051;-68
2023/05/02 10:42:56;;;;;;;8.32;3.60;;;;;;;13.94;58.20;102567.22;4958612;28;20030;-68
2023/05/02 10:45:37;;;;;;;7.38;3.35;;;;;;;14.19;59.09;102563.78;4957989;28;20077;-68
2023/05/02 10:48:21;;;;;;;7.50;3.35;;;;;;;14.12;57.06;102560.88;4959180;28;20031;-68
2023/05/02 10:50:50;;;;;;;9.70;3.60;;;;;;;14.11;56.88;102559.06;4958119;28;20109;-68
2023/05/02 10:53:39;;;;;;;8.95;3.63;;;;;;;14.40;57.00;102550.53;4956529;28;20113;-68
2023/05/02 10:56:21;;;;;;;9.10;3.60;;;;;;;14.53;55.44;102550.97;4958893;28;20047;-68
2023/05/02 10:58:50;;;;;;;9.32;3.80;;;;;;;14.42;53.05;102564.63;4955800;28;20110;-68
2023/05/02 11:01:28;;;;;;;8.55;3.97;;;;;;;14.33;55.29;102558.16;4956201;28;20027;-68
2023/05/02 11:03:57;;;;;;;8.40;3.90;;;;;;;14.32;55.12;102558.97;4956725;28;20211;-68
2023/05/02 11:06:24;;;;;;;6.95;3.42;;;;;;;14.48;56.28;102569.16;4958223;28;20114;-68
2023/05/02 11:08:50;;;;;;;9.18;3.80;;;;;;;14.58;50.83;102570.38;4958832;28;20035;-68
2023/05/02 11:11:40;;;;;;;6.15;3.42;;;;;;;14.69;54.22;102571.69;4961964;28;20124;-68
2023/05/02 11:14:05;;;;;;;9.90;3.65;;;;;;;14.97;50.75;102569.09;4959204;28;20762;-68
2023/05/02 11:17:11;;;;;;;8.35;3.70;;;;;;;15.37;53.24;102570.41;4960567;28;20075;-68
2023/05/02 11:19:36;;;;;;;6.55;3.67;;;;;;;15.40;52.78;102566.13;4960745;28;20026;-69
2023/05/02 11:22:16;;;;;;;9.50;3.83;;;;;;;15.31;52.32;102571.09;4959559;28;20531;-68
2023/05/02 11:24:44;;;;;;;8.13;3.88;;;;;;;15.03;51.68;102580.69;4957555;28;21002;-68
2023/05/02 11:27:28;;;;;;;11.30;3.90;;;;;;;14.89;54.26;102577.59;4957749;28;21196;-68
2023/05/02 11:30:04;;;;;;;8.38;4.13;;;;;;;14.89;51.05;102575.00;4961243;28;20235;-68
2023/05/02 11:32:48;;;;;;;7.80;3.83;;;;;;;15.21;54.92;102577.78;4231821;22;20048;-96
2023/05/02 11:35:26;;;;;;;10.43;4.20;;;;;;;15.67;54.34;102578.34;4993230;28;20395;-95
2023/05/02 11:37:53;;;;;;;9.43;3.70;;;;;;;15.74;50.96;102566.25;4996685;28;20040;-96
2023/05/02 11:40:19;;;;;;;7.88;3.70;;;;;;;15.74;50.99;102572.44;4992706;28;20030;-95
2023/05/02 11:42:44;;;;;;;9.38;4.43;;;;;;;15.93;51.80;102567.72;4994499;28;20112;-95
2023/05/02 11:45:10;;;;;;;9.90;4.50;;;;;;;16.20;51.07;102558.84;4997859;28;20029;-94
2023/05/02 11:47:40;;;;;;;7.82;4.00;;;;;;;16.44;50.83;102567.41;4995924;28;20841;-96
2023/05/02 11:50:19;;;;;;;9.05;3.75;;;;;;;16.55;47.60;102575.59;4995086;28;20026;-96
2023/05/02 11:52:46;;;;;;;8.93;3.95;;;;;;;16.36;44.05;102573.31;4995462;28;20089;-96
2023/05/02 11:55:16;;;;;;;8.77;4.40;;;;;;;16.30;50.41;102580.19;4976640;28;20057;-96
2023/05/02 11:57:47;;;;;;;9.65;4.07;;;;;;;16.15;46.69;102575.41;4975930;28;20422;-96
2023/05/02 12:00:14;;;;;;;10.23;3.70;;;;;;;16.36;49.54;102579.47;4968833;28;20042;-96
2023/05/02 12:02:41;;;;;;;11.30;4.10;;;;;;;16.41;47.48;102583.13;4972248;28;20030;-94
2023/05/02 12:05:08;;;;;;;8.75;3.67;;;;;;;16.29;44.32;102585.41;4967700;28;20026;-95
2023/05/02 12:07:39;;;;;;;11.02;4.13;;;;;;;16.47;49.18;102575.38;4975811;28;20054;-95
2023/05/02 12:10:11;;;;;;;9.48;3.88;;;;;;;16.62;47.24;102585.44;4972054;28;20102;-95
2023/05/02 12:12:38;;;;;;;8.90;4.07;;;;;;;16.77;47.22;102582.31;4988392;28;20034;-95
2023/05/02 12:15:09;;;;;;;7.85;3.60;;;;;;;16.95;48.99;102581.94;4973160;28;20396;-94
2023/05/02 12:17:43;;;;;;;7.38;3.47;;;;;;;17.07;48.49;102581.34;4973049;28;20042;-94
2023/05/02 12:20:10;;;;;;;5.57;2.97;;;;;;;17.07;44.50;102588.34;4990206;28;20010;-95
2023/05/02 12:22:36;;;;;;;7.82;3.53;;;;;;;17.08;46.33;102598.94;4973716;28;20046;-94